Campbell River, Canada
Current Conditions -  °F | °C
As of 8:00 AM on Thursday 30 Oct 2014 (Local Time) from CYBL Reporting Station
Light Rain Light Rain  
Wind Chill: 50°   Ceiling: 4500
Heat Index: 50°   Visibility: 10mi
Dew Point: 48°   Wind: 9mph
Humidity: 94%   Direction: 90°E
Pressure: 29.8"   Gusts: NA
Location:  50.02°N, 125.25°W
Report Text: CYBL 301500Z 09008KT 10SM -RA FEW009 BKN045 OVC070 10/09 A2980 RMK SF2SC4AC2 SLP094
Loading
Personal Weather Stations






























Interactive Weather Map
Tropical Storm Tracking
New forecast layout! Learn more

10-Day Weather Forecast

Advertisements
Track Severe Weather on mobile